createdAt,value
2019-06-07T00:00:55.189Z,6.67
2019-06-07T00:03:29.868Z,8.37
2019-06-07T00:05:56.883Z,9.13
2019-06-07T00:08:29.029Z,8.17
2019-06-07T00:10:58.677Z,7.50
2019-06-07T00:13:28.590Z,6.07
2019-06-07T00:15:58.505Z,5.40
2019-06-07T00:18:28.417Z,4.33
2019-06-07T00:20:58.433Z,6.67
2019-06-07T00:23:28.351Z,4.90
2019-06-07T00:25:58.255Z,5.23
2019-06-07T00:28:28.271Z,4.40
2019-06-07T00:30:58.200Z,7.50
2019-06-07T00:33:28.096Z,5.83
2019-06-07T00:35:57.878Z,6.23
2019-06-07T00:38:27.921Z,6.23
2019-06-07T00:40:58.137Z,6.13
2019-06-07T00:43:28.739Z,7.87
2019-06-07T00:45:58.938Z,4.33
2019-06-07T00:48:32.714Z,6.97
2019-06-07T00:51:00.634Z,8.50
2019-06-07T00:53:32.634Z,4.53
2019-06-07T00:56:02.527Z,7.63
2019-06-07T00:58:32.829Z,6.10
2019-06-07T01:01:02.841Z,4.17
2019-06-07T01:03:32.755Z,6.90
2019-06-07T01:06:02.768Z,5.17
2019-06-07T01:08:32.882Z,5.50
2019-06-07T01:11:02.791Z,7.90
2019-06-07T01:13:32.802Z,7.07
2019-06-07T01:16:02.718Z,6.77
2019-06-07T01:18:39.087Z,5.40
2019-06-07T01:21:04.508Z,3.97
2019-06-07T01:24:04.764Z,6.83
2019-06-07T01:26:06.300Z,4.57
2019-06-07T01:28:36.216Z,7.03
2019-06-07T01:31:06.240Z,6.57
2019-06-07T01:33:50.177Z,6.00
2019-06-07T01:36:07.822Z,4.80
2019-06-07T01:38:37.799Z,6.00
2019-06-07T01:41:07.746Z,3.43
2019-06-07T01:43:37.856Z,4.97
2019-06-07T01:46:07.867Z,7.13
2019-06-07T01:48:48.998Z,5.30
2019-06-07T01:51:09.662Z,6.37
2019-06-07T01:53:39.673Z,5.93
2019-06-07T01:56:09.589Z,11.00
2019-06-07T01:58:39.695Z,6.13
2019-06-07T02:01:09.608Z,5.30
2019-06-07T02:03:39.720Z,5.77
2019-06-07T02:06:09.731Z,7.20
2019-06-07T02:08:39.647Z,9.87
2019-06-07T02:11:09.563Z,4.27
2019-06-07T02:13:39.486Z,6.93
2019-06-07T02:16:09.678Z,8.00
2019-06-07T02:19:00.607Z,6.73
2019-06-07T02:21:11.373Z,8.00
2019-06-07T02:23:41.289Z,5.90
2019-06-07T02:26:11.204Z,9.07
2019-06-07T02:28:45.516Z,6.57
2019-06-07T02:31:12.895Z,6.13
2019-06-07T02:33:42.807Z,6.37
2019-06-07T02:36:12.721Z,6.07
2019-06-07T02:38:42.637Z,6.13
2019-06-07T02:41:12.602Z,2.67
2019-06-07T02:43:42.658Z,4.97
2019-06-07T02:46:26.471Z,4.10
2019-06-07T02:48:45.737Z,5.90
2019-06-07T02:51:16.036Z,5.70
2019-06-07T02:53:45.950Z,5.30
2019-06-07T02:58:48.053Z,7.27
2019-06-07T03:01:18.944Z,8.30
2019-06-07T03:03:49.311Z,7.63
2019-06-07T03:06:21.219Z,6.97
2019-06-07T03:08:52.706Z,5.30
2019-06-07T03:11:25.788Z,6.63
2019-06-07T03:13:57.740Z,5.43
2019-06-07T03:16:36.772Z,8.30
2019-06-07T03:19:07.988Z,4.50
2019-06-07T03:21:41.643Z,4.53
2019-06-07T03:24:12.081Z,4.57
2019-06-07T03:29:14.324Z,5.17
2019-06-07T03:31:47.582Z,5.40
2019-06-07T03:34:16.216Z,7.10
2019-06-07T03:36:46.228Z,5.13
2019-06-07T03:39:16.141Z,6.33
2019-06-07T03:42:05.177Z,5.97
2019-06-07T03:44:17.836Z,5.73
2019-06-07T03:46:47.769Z,6.70
2019-06-07T03:49:17.664Z,5.60
2019-06-07T03:51:47.491Z,8.30
2019-06-07T03:54:17.836Z,5.40
2019-06-07T03:56:47.871Z,5.10
2019-06-07T03:59:17.853Z,4.43
2019-06-07T04:01:47.695Z,8.93
2019-06-07T04:04:17.834Z,6.97
2019-06-07T04:06:47.772Z,6.00
2019-06-07T04:09:17.662Z,7.83
2019-06-07T04:11:47.719Z,6.83
2019-06-07T04:14:17.682Z,4.77
2019-06-07T04:16:47.616Z,8.93
2019-06-07T04:19:17.508Z,7.80
2019-06-07T04:21:47.426Z,9.30
2019-06-07T04:24:17.530Z,7.97
2019-06-07T04:26:47.647Z,5.70
2019-06-07T04:29:41.580Z,7.13
2019-06-07T04:31:49.270Z,5.57
2019-06-07T04:34:19.251Z,9.77
2019-06-07T04:36:58.682Z,6.97
2019-06-07T04:39:25.273Z,5.80
2019-06-07T04:41:57.942Z,7.63
2019-06-07T04:44:29.225Z,9.00
2019-06-07T04:47:01.990Z,6.73
2019-06-07T04:49:40.045Z,7.00
2019-06-07T04:52:07.180Z,10.87
2019-06-07T04:54:38.591Z,6.77
2019-06-07T04:57:09.020Z,10.67
2019-06-07T05:00:11.213Z,9.30
2019-06-07T05:02:10.613Z,10.97
2019-06-07T05:04:42.431Z,7.07
2019-06-07T05:07:12.305Z,8.23
2019-06-07T05:09:43.252Z,9.10
2019-06-07T05:12:13.453Z,9.70
2019-06-07T05:14:44.319Z,12.80
2019-06-07T05:17:14.419Z,5.83
2019-06-07T05:19:44.891Z,7.57
2019-06-07T05:22:15.130Z,8.60
2019-06-07T05:24:45.042Z,7.37
2019-06-07T05:27:14.958Z,7.47
2019-06-07T05:30:06.454Z,4.13
2019-06-07T05:32:16.704Z,7.00
2019-06-07T05:34:47.546Z,7.73
2019-06-07T05:37:17.557Z,8.90
2019-06-07T05:39:47.520Z,5.63
2019-06-07T05:42:17.484Z,6.77
2019-06-07T05:44:47.396Z,5.43
2019-06-07T05:47:17.315Z,8.40
2019-06-07T05:49:47.544Z,7.23
2019-06-07T05:52:17.533Z,5.10
2019-06-07T05:54:47.836Z,5.17
2019-06-07T05:57:18.047Z,5.33
2019-06-07T05:59:47.965Z,7.00
2019-06-07T06:02:22.452Z,9.27
2019-06-07T06:04:49.921Z,6.03
2019-06-07T06:07:19.859Z,6.47
2019-06-07T06:09:49.773Z,4.67
2019-06-07T06:12:34.017Z,5.80
2019-06-07T06:14:51.566Z,5.63
2019-06-07T06:17:21.776Z,8.30
2019-06-07T06:19:53.464Z,5.93
2019-06-07T06:22:23.373Z,4.93
2019-06-07T06:25:29.843Z,4.87
2019-06-07T06:29:57.141Z,5.10
2019-06-07T06:32:51.002Z,3.57
2019-06-07T06:34:58.738Z,2.90
2019-06-07T06:37:28.753Z,1.90
2019-06-07T06:39:58.664Z,3.00
2019-06-07T06:42:28.578Z,3.40
2019-06-07T06:44:58.550Z,5.63
2019-06-07T06:47:28.502Z,3.00
2019-06-07T06:49:58.415Z,2.27
2019-06-07T06:52:28.330Z,2.67
2019-06-07T06:55:00.789Z,5.30
2019-06-07T06:57:30.122Z,4.73
2019-06-07T07:00:00.049Z,4.27
2019-06-07T07:02:30.128Z,3.80
2019-06-07T07:05:00.157Z,2.23
2019-06-07T07:07:31.303Z,4.50
2019-06-07T07:10:03.076Z,2.77
2019-06-07T07:12:33.267Z,3.83
2019-06-07T07:15:03.664Z,3.20
2019-06-07T07:17:50.672Z,3.57
2019-06-07T07:20:07.774Z,2.57
2019-06-07T07:22:37.711Z,1.87
2019-06-07T07:25:08.901Z,2.50
2019-06-07T07:27:38.871Z,2.43
2019-06-07T07:30:35.979Z,3.07
2019-06-07T07:32:45.578Z,2.80
2019-06-07T07:35:14.748Z,2.20
2019-06-07T07:37:46.169Z,3.23
2019-06-07T07:42:50.509Z,1.30
2019-06-07T07:45:20.491Z,2.20
2019-06-07T07:48:08.331Z,2.30
2019-06-07T07:50:22.389Z,1.53
2019-06-07T07:52:56.863Z,2.20
2019-06-07T07:55:24.275Z,3.37
2019-06-07T07:58:01.077Z,1.77
2019-06-07T08:03:04.333Z,2.20
2019-06-07T08:05:42.566Z,4.43
2019-06-07T08:08:07.513Z,3.77
2019-06-07T08:10:36.285Z,3.20
2019-06-07T08:13:23.395Z,3.63
2019-06-07T08:15:38.235Z,1.97
2019-06-07T08:18:08.640Z,2.73
2019-06-07T08:20:38.748Z,3.67
2019-06-07T08:23:08.908Z,2.77
2019-06-07T08:25:39.454Z,3.00
2019-06-07T08:28:09.474Z,2.80
2019-06-07T08:30:50.566Z,1.80
2019-06-07T08:33:26.070Z,1.60
2019-06-07T08:38:29.778Z,1.27
2019-06-07T08:40:54.589Z,2.93
2019-06-07T08:43:21.395Z,2.60
2019-06-07T08:45:58.440Z,1.37
2019-06-07T08:48:28.003Z,1.97
2019-06-07T08:50:57.605Z,4.20
2019-06-07T08:53:26.401Z,1.63
2019-06-07T08:56:00.843Z,2.60
2019-06-07T08:58:27.829Z,2.43
2019-06-07T09:01:03.623Z,1.60
2019-06-07T09:03:29.797Z,1.20
2019-06-07T09:06:06.463Z,4.23
2019-06-07T09:08:31.483Z,2.23
2019-06-07T09:11:06.310Z,4.67
2019-06-07T09:13:33.368Z,1.07
2019-06-07T09:16:08.103Z,2.73
2019-06-07T09:18:43.057Z,2.07
2019-06-07T09:21:09.623Z,1.27
2019-06-07T09:23:38.827Z,1.30
2019-06-07T09:26:17.620Z,1.73
2019-06-07T09:28:40.743Z,3.67
2019-06-07T09:31:12.832Z,3.17
2019-06-07T09:33:42.831Z,5.23
2019-06-07T09:36:13.708Z,2.57
2019-06-07T09:38:45.974Z,1.93
2019-06-07T09:41:16.307Z,2.37
2019-06-07T09:44:01.605Z,3.57
2019-06-07T09:46:18.370Z,5.10
2019-06-07T09:51:20.853Z,3.33
2019-06-07T09:53:51.057Z,2.67
2019-06-07T09:56:21.608Z,3.10
2019-06-07T09:58:53.543Z,2.50
2019-06-07T10:01:23.512Z,2.97
2019-06-07T10:03:53.659Z,1.00
2019-06-07T10:06:23.574Z,1.80
2019-06-07T10:11:25.759Z,1.27
2019-06-07T10:13:55.674Z,2.50
2019-06-07T10:16:25.520Z,2.23
2019-06-07T10:18:55.601Z,5.53
2019-06-07T10:21:25.514Z,2.60
2019-06-07T10:23:55.367Z,3.67
2019-06-07T10:26:25.340Z,1.73
2019-06-07T10:28:55.450Z,2.20
2019-06-07T10:31:26.055Z,2.13
2019-06-07T10:33:56.011Z,1.70
2019-06-07T10:36:25.980Z,2.63
2019-06-07T10:38:55.991Z,2.77
2019-06-07T10:41:26.217Z,1.40
2019-06-07T10:43:56.307Z,2.23
2019-06-07T10:46:26.351Z,3.53
2019-06-07T10:48:57.676Z,2.17
2019-06-07T10:51:27.626Z,2.90
2019-06-07T10:53:58.766Z,2.77
2019-06-07T10:56:28.725Z,3.20
2019-06-07T10:58:58.937Z,2.17
2019-06-07T11:01:28.733Z,1.77
2019-06-07T11:03:58.647Z,3.63
2019-06-07T11:06:29.164Z,4.77
2019-06-07T11:08:59.175Z,3.63
2019-06-07T11:11:29.260Z,3.27
2019-06-07T11:13:59.839Z,2.30
2019-06-07T11:16:29.897Z,2.40
2019-06-07T11:18:59.811Z,2.37
2019-06-07T11:21:29.616Z,2.80
2019-06-07T11:23:59.466Z,2.63
2019-06-07T11:26:29.476Z,2.77
2019-06-07T11:28:59.306Z,2.40
2019-06-07T11:31:29.382Z,2.47
2019-06-07T11:33:59.624Z,2.43
2019-06-07T11:36:29.911Z,2.37
2019-06-07T11:39:00.304Z,1.37
2019-06-07T11:41:30.606Z,3.43
2019-06-07T11:44:01.844Z,4.73
2019-06-07T11:46:33.079Z,3.80
2019-06-07T11:49:03.759Z,3.13
2019-06-07T11:51:34.505Z,4.20
2019-06-07T11:54:07.636Z,1.47
2019-06-07T11:56:38.930Z,2.73
2019-06-07T11:59:11.198Z,1.50
2019-06-07T12:01:42.139Z,1.30
2019-06-07T12:04:31.086Z,1.77
2019-06-07T12:06:47.872Z,3.13
2019-06-07T12:09:18.819Z,2.10
2019-06-07T12:11:49.837Z,3.13
2019-06-07T12:14:21.510Z,3.00
2019-06-07T12:16:52.830Z,2.10
2019-06-07T12:19:24.047Z,3.50
2019-06-07T12:21:55.292Z,1.53
2019-06-07T12:24:26.592Z,1.73
2019-06-07T12:26:58.925Z,2.03
2019-06-07T12:29:33.851Z,1.83
2019-06-07T12:32:02.995Z,1.50
2019-06-07T12:34:34.092Z,3.27
2019-06-07T12:37:04.187Z,1.73
2019-06-07T12:39:34.100Z,1.73
2019-06-07T12:42:04.211Z,1.67
2019-06-07T12:44:35.532Z,1.87
2019-06-07T12:47:09.304Z,3.03
2019-06-07T12:49:39.758Z,1.83
2019-06-07T12:52:13.675Z,3.23
2019-06-07T12:54:41.347Z,2.97
2019-06-07T12:57:12.004Z,2.53
2019-06-07T12:59:42.065Z,1.73
2019-06-07T13:02:11.972Z,2.80
2019-06-07T13:04:41.884Z,1.50
2019-06-07T13:07:11.797Z,3.70
2019-06-07T13:09:41.808Z,2.10
2019-06-07T13:12:12.017Z,2.90
2019-06-07T13:14:41.931Z,3.03
2019-06-07T13:17:11.943Z,2.97
2019-06-07T13:19:41.857Z,3.00
2019-06-07T13:22:11.814Z,5.40
2019-06-07T13:24:42.865Z,4.00
2019-06-07T13:27:12.776Z,1.93
2019-06-07T13:29:42.788Z,4.57
2019-06-07T13:32:12.701Z,4.00
2019-06-07T13:34:42.614Z,1.83
2019-06-07T13:37:12.531Z,2.40
2019-06-07T13:39:42.842Z,2.30
2019-06-07T13:42:12.753Z,2.23
2019-06-07T13:44:42.662Z,2.80
2019-06-07T13:47:12.824Z,3.07
2019-06-07T13:49:42.786Z,2.33
2019-06-07T13:52:12.696Z,3.80
2019-06-07T13:54:42.807Z,3.90
2019-06-07T13:57:12.726Z,3.33
2019-06-07T13:59:42.637Z,3.63
2019-06-07T14:02:12.749Z,1.97
2019-06-07T14:04:42.851Z,1.90
2019-06-07T14:07:12.769Z,1.10
2019-06-07T14:09:43.039Z,1.37
2019-06-07T14:12:12.986Z,3.70
2019-06-07T14:14:42.899Z,2.03
2019-06-07T14:17:12.823Z,2.67
2019-06-07T14:19:42.828Z,6.80
2019-06-07T14:22:12.740Z,2.03
2019-06-07T14:24:42.950Z,6.80
2019-06-07T14:27:12.860Z,2.10
2019-06-07T14:29:42.778Z,3.80
2019-06-07T14:32:12.790Z,3.57
2019-06-07T14:34:42.796Z,3.17
2019-06-07T14:37:13.017Z,5.53
2019-06-07T14:39:43.389Z,3.83
2019-06-07T14:42:13.421Z,3.10
2019-06-07T14:44:43.531Z,3.03
2019-06-07T14:47:13.446Z,3.07
2019-06-07T14:49:43.554Z,4.70
2019-06-07T14:52:13.520Z,4.87
2019-06-07T14:54:43.480Z,2.43
2019-06-07T14:57:13.486Z,3.30
2019-06-07T14:59:43.700Z,5.37
2019-06-07T15:02:13.818Z,5.53
2019-06-07T15:04:46.772Z,4.50
2019-06-07T15:07:16.867Z,4.30
2019-06-07T15:09:46.794Z,4.57
2019-06-07T15:12:25.272Z,4.67
2019-06-07T15:14:48.393Z,5.00
2019-06-07T15:17:18.305Z,2.97
2019-06-07T15:19:48.220Z,4.87
2019-06-07T15:22:18.130Z,4.47
2019-06-07T15:24:48.354Z,4.33
2019-06-07T15:27:18.390Z,3.97
2019-06-07T15:29:48.364Z,5.50
2019-06-07T15:32:18.576Z,4.33
2019-06-07T15:34:48.484Z,3.33
2019-06-07T15:37:18.397Z,4.63
2019-06-07T15:39:48.189Z,5.10
2019-06-07T15:42:18.126Z,4.90
2019-06-07T15:44:48.236Z,6.97
2019-06-07T15:47:18.154Z,4.37
2019-06-07T15:49:48.067Z,4.50
2019-06-07T15:52:18.172Z,5.77
2019-06-07T15:54:48.086Z,7.20
2019-06-07T15:57:17.999Z,4.33
2019-06-07T15:59:47.934Z,6.53
2019-06-07T16:02:18.422Z,6.90
2019-06-07T16:04:48.427Z,4.50
2019-06-07T16:07:18.440Z,6.23
2019-06-07T16:09:48.556Z,4.33
2019-06-07T16:12:18.757Z,4.20
2019-06-07T16:14:48.725Z,5.23
2019-06-07T16:17:18.781Z,6.27
2019-06-07T16:19:48.794Z,7.03
2019-06-07T16:22:18.999Z,6.63
2019-06-07T16:24:48.981Z,4.27
2019-06-07T16:27:19.024Z,3.83
2019-06-07T16:29:48.938Z,4.33
2019-06-07T16:32:18.852Z,8.13
2019-06-07T16:34:48.961Z,7.20
2019-06-07T16:37:19.171Z,4.37
2019-06-07T16:39:49.084Z,7.40
2019-06-07T16:42:18.997Z,3.57
2019-06-07T16:44:49.025Z,5.63
2019-06-07T16:47:19.023Z,4.37
2019-06-07T16:49:49.818Z,4.97
2019-06-07T16:52:19.927Z,4.07
2019-06-07T16:54:49.840Z,4.43
2019-06-07T16:57:20.022Z,6.30
2019-06-07T16:59:50.894Z,4.30
2019-06-07T17:02:20.858Z,5.30
2019-06-07T17:04:51.072Z,4.40
2019-06-07T17:07:21.373Z,8.13
2019-06-07T17:09:51.287Z,6.30
2019-06-07T17:12:21.202Z,5.10
2019-06-07T17:14:51.114Z,9.90
2019-06-07T17:17:21.047Z,6.90
2019-06-07T17:19:51.138Z,9.50
2019-06-07T17:22:21.051Z,10.63
2019-06-07T17:24:50.966Z,6.63
2019-06-07T17:27:21.056Z,8.63
2019-06-07T17:29:51.001Z,9.33
2019-06-07T17:32:21.002Z,12.83
2019-06-07T17:34:50.913Z,8.37
2019-06-07T17:37:20.842Z,8.13
2019-06-07T17:39:50.965Z,7.27
2019-06-07T17:42:20.949Z,5.60
2019-06-07T17:44:51.510Z,5.43
2019-06-07T17:47:21.960Z,10.87
2019-06-07T17:49:52.275Z,8.43
2019-06-07T17:52:22.568Z,10.50
2019-06-07T17:54:52.775Z,4.50
2019-06-07T17:57:22.689Z,9.60
2019-06-07T17:59:52.769Z,10.40
2019-06-07T18:02:23.914Z,8.73
2019-06-07T18:04:54.299Z,7.70
2019-06-07T18:07:26.888Z,6.87
2019-06-07T18:09:58.551Z,5.73
2019-06-07T18:12:28.562Z,12.17
2019-06-07T18:14:59.063Z,7.83
2019-06-07T18:17:34.695Z,11.93
2019-06-07T18:20:00.886Z,7.57
2019-06-07T18:22:31.109Z,8.37
2019-06-07T18:25:01.066Z,8.07
2019-06-07T18:27:31.643Z,8.37
2019-06-07T18:30:10.878Z,7.70
2019-06-07T18:32:33.569Z,9.03
2019-06-07T18:35:03.776Z,9.33
2019-06-07T18:37:33.787Z,9.13
2019-06-07T18:40:08.433Z,7.43
2019-06-07T18:42:38.497Z,9.87
2019-06-07T18:45:11.240Z,10.87
2019-06-07T18:47:41.207Z,7.50
2019-06-07T18:50:12.058Z,8.53
2019-06-07T18:52:43.432Z,13.17
2019-06-07T18:55:14.587Z,8.97
2019-06-07T18:57:45.286Z,10.43
2019-06-07T19:00:19.169Z,12.37
2019-06-07T19:02:49.736Z,11.63
2019-06-07T19:05:20.530Z,9.37
2019-06-07T19:07:50.559Z,11.57
2019-06-07T19:10:23.669Z,9.37
2019-06-07T19:12:55.243Z,8.37
2019-06-07T19:15:27.091Z,10.73
2019-06-07T19:17:58.113Z,8.47
2019-06-07T19:20:28.663Z,7.03
2019-06-07T19:22:58.581Z,12.40
2019-06-07T19:25:28.586Z,6.10
2019-06-07T19:27:59.238Z,10.40
2019-06-07T19:30:29.320Z,8.87
2019-06-07T19:33:01.376Z,8.40
2019-06-07T19:35:31.489Z,10.20
2019-06-07T19:38:02.103Z,11.23
2019-06-07T19:40:32.067Z,12.80
2019-06-07T19:43:03.972Z,10.63
2019-06-07T19:45:35.020Z,13.07
2019-06-07T19:48:05.695Z,10.40
2019-06-07T19:50:35.881Z,10.07
2019-06-07T19:53:05.882Z,10.93
2019-06-07T19:55:36.000Z,14.33
2019-06-07T19:58:06.310Z,10.63
2019-06-07T20:00:37.502Z,11.27
2019-06-07T20:03:07.514Z,11.83
2019-06-07T20:05:37.625Z,11.77
2019-06-07T20:08:07.829Z,10.23
2019-06-07T20:10:39.513Z,9.77
2019-06-07T20:13:09.901Z,8.80
2019-06-07T20:15:40.215Z,7.83
2019-06-07T20:18:10.826Z,8.23
2019-06-07T20:20:41.019Z,9.60
2019-06-07T20:23:11.341Z,7.70
2019-06-07T20:25:41.784Z,7.73
2019-06-07T20:28:12.852Z,8.27
2019-06-07T20:30:43.688Z,8.10
2019-06-07T20:33:14.175Z,10.90
2019-06-07T20:35:44.543Z,9.20
2019-06-07T20:38:14.457Z,5.57
2019-06-07T20:40:44.961Z,8.20
2019-06-07T20:43:15.365Z,8.67
2019-06-07T20:45:46.224Z,8.60
2019-06-07T20:48:16.657Z,8.03
2019-06-07T20:50:47.414Z,8.13
2019-06-07T20:53:17.491Z,6.93
2019-06-07T20:55:47.961Z,8.77
2019-06-07T20:58:18.942Z,8.40
2019-06-07T21:00:48.826Z,11.33
2019-06-07T21:03:18.905Z,8.67
2019-06-07T21:05:49.998Z,9.77
2019-06-07T21:08:21.030Z,7.37
2019-06-07T21:10:51.427Z,8.17
2019-06-07T21:13:21.659Z,8.03
2019-06-07T21:15:51.653Z,8.27
2019-06-07T21:18:21.769Z,7.87
2019-06-07T21:20:51.930Z,6.90
2019-06-07T21:23:21.943Z,6.20
2019-06-07T21:25:51.859Z,10.97
2019-06-07T21:28:22.265Z,10.33
2019-06-07T21:30:54.907Z,5.10
2019-06-07T21:33:24.988Z,8.40
2019-06-07T21:35:54.970Z,10.37
2019-06-07T21:38:24.865Z,5.93
2019-06-07T21:40:55.875Z,6.53
2019-06-07T21:43:27.255Z,8.23
2019-06-07T21:46:05.564Z,8.00
2019-06-07T21:48:31.353Z,10.77
2019-06-07T21:51:02.386Z,10.17
2019-06-07T21:53:32.800Z,7.80
2019-06-07T21:56:04.841Z,8.97
2019-06-07T21:58:35.281Z,7.50
2019-06-07T22:01:16.199Z,7.87
2019-06-07T22:03:46.358Z,9.03
2019-06-07T22:06:17.738Z,7.73
2019-06-07T22:08:47.654Z,7.20
2019-06-07T22:11:17.433Z,6.00
2019-06-07T22:13:47.723Z,8.03
2019-06-07T22:16:28.510Z,7.13
2019-06-07T22:18:50.298Z,8.63
2019-06-07T22:21:21.035Z,6.97
2019-06-07T22:23:51.221Z,7.93
2019-06-07T22:26:21.016Z,8.03
2019-06-07T22:28:51.451Z,8.90
2019-06-07T22:31:21.357Z,8.07
2019-06-07T22:33:51.368Z,10.97
2019-06-07T22:36:21.290Z,10.97
2019-06-07T22:38:51.206Z,8.30
2019-06-07T22:41:21.304Z,9.20
2019-06-07T22:43:51.498Z,8.57
2019-06-07T22:46:36.284Z,7.23
2019-06-07T22:48:53.526Z,6.27
2019-06-07T22:51:24.164Z,7.23
2019-06-07T22:53:54.685Z,8.13
2019-06-07T22:56:26.390Z,7.43
2019-06-07T22:58:56.301Z,10.23
2019-06-07T23:01:26.412Z,6.27
2019-06-07T23:03:56.499Z,8.20
2019-06-07T23:06:26.684Z,8.20
2019-06-07T23:08:56.840Z,9.03
2019-06-07T23:11:26.752Z,5.70
2019-06-07T23:13:56.693Z,7.87
2019-06-07T23:16:26.686Z,9.60
2019-06-07T23:18:56.698Z,5.93
2019-06-07T23:21:26.714Z,7.07
2019-06-07T23:23:57.187Z,7.47
2019-06-07T23:26:27.219Z,8.57
2019-06-07T23:28:57.232Z,10.20
2019-06-07T23:31:27.142Z,8.33
2019-06-07T23:33:57.281Z,7.17
2019-06-07T23:36:27.264Z,6.07
2019-06-07T23:38:57.570Z,8.70
2019-06-07T23:41:27.495Z,7.77
2019-06-07T23:43:57.402Z,7.37
2019-06-07T23:46:27.293Z,6.07
2019-06-07T23:48:57.098Z,10.37
2019-06-07T23:51:27.171Z,9.33
2019-06-07T23:53:57.155Z,6.97
2019-06-07T23:56:27.064Z,8.87
2019-06-07T23:58:58.745Z,6.33
